sensor_id;sensor_type;location;lat;lon;timestamp;pressure;altitude;pressure_sealevel;temperature;humidity
70009;BME280;59542;37.950;-122.338;2023-08-07T00:01:08;101185.72;;;22.92;52.35
70009;BME280;59542;37.950;-122.338;2023-08-07T00:03:34;101164.69;;;22.98;51.95
70009;BME280;59542;37.950;-122.338;2023-08-07T00:06:01;101172.41;;;22.70;52.93
70009;BME280;59542;37.950;-122.338;2023-08-07T00:08:27;101164.53;;;22.63;53.51
70009;BME280;59542;37.950;-122.338;2023-08-07T00:11:04;101160.97;;;22.68;53.12
70009;BME280;59542;37.950;-122.338;2023-08-07T00:13:30;101168.91;;;22.59;53.95
70009;BME280;59542;37.950;-122.338;2023-08-07T00:15:57;101159.66;;;22.55;53.33
70009;BME280;59542;37.950;-122.338;2023-08-07T00:18:23;101164.81;;;22.67;53.50
70009;BME280;59542;37.950;-122.338;2023-08-07T00:20:49;101169.50;;;22.51;53.71
70009;BME280;59542;37.950;-122.338;2023-08-07T00:23:15;101172.03;;;22.17;54.67
70009;BME280;59542;37.950;-122.338;2023-08-07T00:25:42;101176.91;;;22.35;54.23
70009;BME280;59542;37.950;-122.338;2023-08-07T00:28:08;101167.38;;;22.23;54.70
70009;BME280;59542;37.950;-122.338;2023-08-07T00:30:34;101169.28;;;22.02;55.18
70009;BME280;59542;37.950;-122.338;2023-08-07T00:33:00;101168.19;;;22.33;54.43
70009;BME280;59542;37.950;-122.338;2023-08-07T00:35:27;101161.63;;;22.34;54.41
70009;BME280;59542;37.950;-122.338;2023-08-07T00:37:53;101162.41;;;22.50;53.92
70009;BME280;59542;37.950;-122.338;2023-08-07T00:40:19;101157.59;;;22.11;54.92
70009;BME280;59542;37.950;-122.338;2023-08-07T00:45:11;101163.84;;;21.86;55.33
70009;BME280;59542;37.950;-122.338;2023-08-07T00:47:37;101157.31;;;21.72;56.32
70009;BME280;59542;37.950;-122.338;2023-08-07T00:50:04;101152.94;;;21.86;56.48
70009;BME280;59542;37.950;-122.338;2023-08-07T00:52:32;101165.47;;;22.08;55.84
70009;BME280;59542;37.950;-122.338;2023-08-07T00:54:58;101154.31;;;21.84;55.68
70009;BME280;59542;37.950;-122.338;2023-08-07T00:57:25;101158.09;;;22.03;55.65
70009;BME280;59542;37.950;-122.338;2023-08-07T00:59:52;101150.75;;;21.43;56.68
70009;BME280;59542;37.950;-122.338;2023-08-07T01:02:19;101161.66;;;21.48;57.20
70009;BME280;59542;37.950;-122.338;2023-08-07T01:04:46;101154.84;;;21.30;58.08
70009;BME280;59542;37.950;-122.338;2023-08-07T01:07:12;101151.84;;;21.31;57.49
70009;BME280;59542;37.950;-122.338;2023-08-07T01:09:38;101151.53;;;21.18;58.42
70009;BME280;59542;37.950;-122.338;2023-08-07T01:12:16;101152.84;;;21.00;58.62
70009;BME280;59542;37.950;-122.338;2023-08-07T01:17:16;101150.78;;;20.60;60.41
70009;BME280;59542;37.950;-122.338;2023-08-07T01:19:45;101138.41;;;20.42;61.29
70009;BME280;59542;37.950;-122.338;2023-08-07T01:22:13;101153.16;;;20.46;61.40
70009;BME280;59542;37.950;-122.338;2023-08-07T01:24:41;101146.31;;;19.96;62.35
70009;BME280;59542;37.950;-122.338;2023-08-07T01:33:31;101145.28;;;20.07;63.49
70009;BME280;59542;37.950;-122.338;2023-08-07T01:36:01;101141.38;;;19.93;63.37
70009;BME280;59542;37.950;-122.338;2023-08-07T01:38:29;101144.09;;;19.88;63.48
70009;BME280;59542;37.950;-122.338;2023-08-07T01:40:56;101143.78;;;19.84;63.53
70009;BME280;59542;37.950;-122.338;2023-08-07T01:43:23;101148.41;;;19.84;64.18
70009;BME280;59542;37.950;-122.338;2023-08-07T01:45:50;101141.47;;;20.03;62.89
70009;BME280;59542;37.950;-122.338;2023-08-07T01:48:16;101144.28;;;19.54;64.34
70009;BME280;59542;37.950;-122.338;2023-08-07T01:50:42;101136.09;;;19.76;64.36
70009;BME280;59542;37.950;-122.338;2023-08-07T01:53:09;101134.78;;;19.51;64.98
70009;BME280;59542;37.950;-122.338;2023-08-07T01:55:35;101129.34;;;19.78;64.10
70009;BME280;59542;37.950;-122.338;2023-08-07T01:58:01;101128.84;;;19.55;64.97
70009;BME280;59542;37.950;-122.338;2023-08-07T02:00:28;101132.28;;;19.72;64.32
70009;BME280;59542;37.950;-122.338;2023-08-07T02:02:54;101133.00;;;19.62;64.99
70009;BME280;59542;37.950;-122.338;2023-08-07T02:05:21;101135.34;;;19.26;65.68
70009;BME280;59542;37.950;-122.338;2023-08-07T02:07:47;101137.47;;;19.46;65.74
70009;BME280;59542;37.950;-122.338;2023-08-07T02:10:14;101140.94;;;19.42;65.40
70009;BME280;59542;37.950;-122.338;2023-08-07T02:12:40;101136.03;;;19.39;65.39
70009;BME280;59542;37.950;-122.338;2023-08-07T02:15:07;101135.19;;;19.33;65.94
70009;BME280;59542;37.950;-122.338;2023-08-07T02:17:34;101142.50;;;19.33;66.11
70009;BME280;59542;37.950;-122.338;2023-08-07T02:20:01;101143.19;;;19.50;65.27
70009;BME280;59542;37.950;-122.338;2023-08-07T02:22:27;101142.91;;;19.78;64.31
70009;BME280;59542;37.950;-122.338;2023-08-07T02:24:54;101142.63;;;19.48;65.28
70009;BME280;59542;37.950;-122.338;2023-08-07T02:27:20;101143.16;;;19.45;65.79
70009;BME280;59542;37.950;-122.338;2023-08-07T02:29:46;101146.59;;;19.35;65.68
70009;BME280;59542;37.950;-122.338;2023-08-07T02:32:13;101146.50;;;19.57;65.19
70009;BME280;59542;37.950;-122.338;2023-08-07T02:34:39;101152.47;;;19.86;63.93
70009;BME280;59542;37.950;-122.338;2023-08-07T02:37:06;101152.09;;;19.72;64.17
70009;BME280;59542;37.950;-122.338;2023-08-07T02:39:32;101159.44;;;19.45;64.98
70009;BME280;59542;37.950;-122.338;2023-08-07T02:41:58;101159.44;;;19.45;65.30
70009;BME280;59542;37.950;-122.338;2023-08-07T02:44:25;101164.34;;;18.72;68.05
70009;BME280;59542;37.950;-122.338;2023-08-07T02:46:51;101159.47;;;18.96;67.38
70009;BME280;59542;37.950;-122.338;2023-08-07T02:49:17;101160.22;;;18.69;68.76
70009;BME280;59542;37.950;-122.338;2023-08-07T02:51:43;101158.13;;;18.55;69.03
70009;BME280;59542;37.950;-122.338;2023-08-07T02:54:10;101161.47;;;18.62;68.84
70009;BME280;59542;37.950;-122.338;2023-08-07T02:56:39;101166.38;;;18.65;69.02
70009;BME280;59542;37.950;-122.338;2023-08-07T02:59:05;101157.53;;;18.53;69.39
70009;BME280;59542;37.950;-122.338;2023-08-07T03:01:31;101154.09;;;18.57;69.42
70009;BME280;59542;37.950;-122.338;2023-08-07T03:03:58;101160.66;;;18.23;70.96
70009;BME280;59542;37.950;-122.338;2023-08-07T03:06:24;101163.00;;;18.36;70.24
70009;BME280;59542;37.950;-122.338;2023-08-07T03:08:50;101157.31;;;18.37;70.59
70009;BME280;59542;37.950;-122.338;2023-08-07T03:11:17;101156.41;;;18.27;71.03
70009;BME280;59542;37.950;-122.338;2023-08-07T03:13:43;101159.06;;;18.05;71.50
70009;BME280;59542;37.950;-122.338;2023-08-07T03:16:10;101158.19;;;18.21;71.30
70009;BME280;59542;37.950;-122.338;2023-08-07T03:18:36;101164.47;;;18.05;71.81
70009;BME280;59542;37.950;-122.338;2023-08-07T03:21:02;101161.34;;;17.96;72.42
70009;BME280;59542;37.950;-122.338;2023-08-07T03:23:28;101151.00;;;17.93;72.12
70009;BME280;59542;37.950;-122.338;2023-08-07T03:26:08;101152.56;;;18.06;71.69
70009;BME280;59542;37.950;-122.338;2023-08-07T03:28:35;101150.34;;;17.86;72.38
70009;BME280;59542;37.950;-122.338;2023-08-07T03:31:02;101149.44;;;17.97;72.09
70009;BME280;59542;37.950;-122.338;2023-08-07T03:33:29;101152.22;;;18.02;71.69
70009;BME280;59542;37.950;-122.338;2023-08-07T03:35:55;101157.09;;;18.00;71.62
70009;BME280;59542;37.950;-122.338;2023-08-07T03:38:21;101154.69;;;18.04;71.80
70009;BME280;59542;37.950;-122.338;2023-08-07T03:40:47;101159.13;;;17.93;71.96
70009;BME280;59542;37.950;-122.338;2023-08-07T03:43:14;101164.47;;;17.88;72.31
70009;BME280;59542;37.950;-122.338;2023-08-07T03:45:40;101161.69;;;17.83;72.37
70009;BME280;59542;37.950;-122.338;2023-08-07T03:48:07;101152.31;;;17.90;72.05
70009;BME280;59542;37.950;-122.338;2023-08-07T03:50:33;101167.91;;;18.00;72.04
70009;BME280;59542;37.950;-122.338;2023-08-07T03:53:06;101161.34;;;17.96;71.93
70009;BME280;59542;37.950;-122.338;2023-08-07T03:55:33;101167.91;;;18.00;72.05
70009;BME280;59542;37.950;-122.338;2023-08-07T03:57:59;101168.22;;;18.04;71.89
70009;BME280;59542;37.950;-122.338;2023-08-07T04:00:26;101169.13;;;18.09;71.25
70009;BME280;59542;37.950;-122.338;2023-08-07T04:02:52;101177.91;;;18.16;70.85
70009;BME280;59542;37.950;-122.338;2023-08-07T04:05:18;101181.38;;;18.12;70.99
70009;BME280;59542;37.950;-122.338;2023-08-07T04:07:44;101186.97;;;17.88;71.54
70009;BME280;59542;37.950;-122.338;2023-08-07T04:10:11;101185.28;;;17.87;71.66
70009;BME280;59542;37.950;-122.338;2023-08-07T04:12:37;101182.75;;;17.81;72.08
70009;BME280;59542;37.950;-122.338;2023-08-07T04:15:04;101187.19;;;17.87;72.13
70009;BME280;59542;37.950;-122.338;2023-08-07T04:17:30;101184.63;;;17.80;72.12
70009;BME280;59542;37.950;-122.338;2023-08-07T04:19:56;101187.19;;;17.87;71.87
70009;BME280;59542;37.950;-122.338;2023-08-07T04:22:23;101179.06;;;18.04;71.28
70009;BME280;59542;37.950;-122.338;2023-08-07T04:24:49;101183.34;;;18.00;71.63
70009;BME280;59542;37.950;-122.338;2023-08-07T04:27:15;101191.31;;;17.89;72.68
70009;BME280;59542;37.950;-122.338;2023-08-07T04:29:41;101188.50;;;17.84;72.94
70009;BME280;59542;37.950;-122.338;2023-08-07T04:32:08;101195.72;;;17.96;72.40
70009;BME280;59542;37.950;-122.338;2023-08-07T04:34:34;101189.66;;;18.05;72.10
70009;BME280;59542;37.950;-122.338;2023-08-07T04:37:01;101189.41;;;18.07;72.61
70009;BME280;59542;37.950;-122.338;2023-08-07T04:39:27;101195.06;;;18.22;72.07
70009;BME280;59542;37.950;-122.338;2023-08-07T04:41:53;101201.47;;;18.16;72.38
70009;BME280;59542;37.950;-122.338;2023-08-07T04:44:19;101202.69;;;18.25;72.18
70009;BME280;59542;37.950;-122.338;2023-08-07T04:46:46;101202.78;;;18.13;72.76
70009;BME280;59542;37.950;-122.338;2023-08-07T04:49:12;101206.00;;;18.10;72.75
70009;BME280;59542;37.950;-122.338;2023-08-07T04:51:38;101207.03;;;18.09;73.48
70009;BME280;59542;37.950;-122.338;2023-08-07T04:54:05;101206.00;;;17.93;74.00
70009;BME280;59542;37.950;-122.338;2023-08-07T04:56:31;101204.59;;;17.91;74.56
70009;BME280;59542;37.950;-122.338;2023-08-07T04:58:57;101205.66;;;17.90;74.29
70009;BME280;59542;37.950;-122.338;2023-08-07T05:01:23;101204.66;;;18.13;73.35
70009;BME280;59542;37.950;-122.338;2023-08-07T05:03:50;101212.06;;;18.01;73.60
70009;BME280;59542;37.950;-122.338;2023-08-07T05:06:16;101206.72;;;17.89;73.98
70009;BME280;59542;37.950;-122.338;2023-08-07T05:08:42;101205.75;;;17.95;73.48
70009;BME280;59542;37.950;-122.338;2023-08-07T05:11:08;101202.22;;;17.94;73.18
70009;BME280;59542;37.950;-122.338;2023-08-07T05:13:35;101198.09;;;17.92;72.90
70009;BME280;59542;37.950;-122.338;2023-08-07T05:16:01;101206.41;;;18.02;72.63
70009;BME280;59542;37.950;-122.338;2023-08-07T05:18:27;101207.28;;;17.91;73.42
70009;BME280;59542;37.950;-122.338;2023-08-07T05:20:53;101202.06;;;17.84;74.04
70009;BME280;59542;37.950;-122.338;2023-08-07T05:23:20;101206.38;;;17.85;74.36
70009;BME280;59542;37.950;-122.338;2023-08-07T05:25:46;101202.13;;;17.89;74.13
70009;BME280;59542;37.950;-122.338;2023-08-07T05:28:13;101202.63;;;18.03;74.01
70009;BME280;59542;37.950;-122.338;2023-08-07T05:30:39;101197.69;;;17.83;74.73
70009;BME280;59542;37.950;-122.338;2023-08-07T05:33:06;101196.97;;;17.88;74.93
70009;BME280;59542;37.950;-122.338;2023-08-07T05:35:32;101190.06;;;17.97;74.78
70009;BME280;59542;37.950;-122.338;2023-08-07T05:37:58;101204.41;;;17.81;75.70
70009;BME280;59542;37.950;-122.338;2023-08-07T05:40:24;101199.97;;;17.75;76.42
70009;BME280;59542;37.950;-122.338;2023-08-07T05:42:51;101212.53;;;17.81;76.29
70009;BME280;59542;37.950;-122.338;2023-08-07T05:45:17;101206.09;;;17.70;76.63
70009;BME280;59542;37.950;-122.338;2023-08-07T05:47:43;101203.50;;;17.92;75.65
70009;BME280;59542;37.950;-122.338;2023-08-07T05:50:09;101198.59;;;17.89;75.76
70009;BME280;59542;37.950;-122.338;2023-08-07T05:52:36;101204.69;;;17.96;75.31
70009;BME280;59542;37.950;-122.338;2023-08-07T05:55:03;101205.00;;;17.83;75.40
70009;BME280;59542;37.950;-122.338;2023-08-07T05:57:29;101199.91;;;17.86;75.57
70009;BME280;59542;37.950;-122.338;2023-08-07T05:59:56;101201.88;;;17.74;75.35
70009;BME280;59542;37.950;-122.338;2023-08-07T06:02:22;101201.72;;;17.81;74.88
70009;BME280;59542;37.950;-122.338;2023-08-07T06:04:48;101203.97;;;17.55;76.64
70009;BME280;59542;37.950;-122.338;2023-08-07T06:07:14;101198.03;;;17.58;75.97
70009;BME280;59542;37.950;-122.338;2023-08-07T06:09:41;101200.22;;;17.73;75.28
70009;BME280;59542;37.950;-122.338;2023-08-07T06:12:07;101203.75;;;17.74;75.21
70009;BME280;59542;37.950;-122.338;2023-08-07T06:14:34;101200.94;;;17.68;75.34
70009;BME280;59542;37.950;-122.338;2023-08-07T06:17:00;101202.34;;;17.42;76.41
70009;BME280;59542;37.950;-122.338;2023-08-07T06:19:29;101200.81;;;17.47;76.05
70009;BME280;59542;37.950;-122.338;2023-08-07T06:21:56;101200.28;;;17.61;76.04
70009;BME280;59542;37.950;-122.338;2023-08-07T06:24:22;101206.34;;;17.68;75.89
70009;BME280;59542;37.950;-122.338;2023-08-07T06:26:50;101206.59;;;17.67;75.43
70009;BME280;59542;37.950;-122.338;2023-08-07T06:29:16;101199.19;;;17.62;75.17
70009;BME280;59542;37.950;-122.338;2023-08-07T06:31:42;101202.00;;;17.67;75.54
70009;BME280;59542;37.950;-122.338;2023-08-07T06:34:09;101196.88;;;17.54;75.69
70009;BME280;59542;37.950;-122.338;2023-08-07T06:36:35;101198.94;;;17.47;76.69
70009;BME280;59542;37.950;-122.338;2023-08-07T06:39:01;101204.84;;;17.44;76.59
70009;BME280;59542;37.950;-122.338;2023-08-07T06:41:29;101211.13;;;17.33;76.76
70009;BME280;59542;37.950;-122.338;2023-08-07T06:43:56;101204.44;;;17.52;76.24
70009;BME280;59542;37.950;-122.338;2023-08-07T06:46:22;101199.53;;;17.49;76.55
70009;BME280;59542;37.950;-122.338;2023-08-07T06:48:52;101210.41;;;17.26;77.74
70009;BME280;59542;37.950;-122.338;2023-08-07T06:51:18;101210.47;;;17.42;77.41
70009;BME280;59542;37.950;-122.338;2023-08-07T06:53:44;101209.66;;;17.42;77.05
70009;BME280;59542;37.950;-122.338;2023-08-07T06:56:11;101207.50;;;17.27;77.79
70009;BME280;59542;37.950;-122.338;2023-08-07T06:58:37;101210.78;;;17.29;77.31
70009;BME280;59542;37.950;-122.338;2023-08-07T07:01:03;101216.66;;;17.26;77.82
70009;BME280;59542;37.950;-122.338;2023-08-07T07:03:29;101217.34;;;17.33;77.19
70009;BME280;59542;37.950;-122.338;2023-08-07T07:05:56;101212.16;;;17.32;76.95
70009;BME280;59542;37.950;-122.338;2023-08-07T07:08:22;101221.78;;;17.39;77.13
70009;BME280;59542;37.950;-122.338;2023-08-07T07:10:49;101222.22;;;17.20;77.87
70009;BME280;59542;37.950;-122.338;2023-08-07T07:13:15;101226.81;;;17.19;77.61
70009;BME280;59542;37.950;-122.338;2023-08-07T07:15:41;101224.19;;;17.24;78.10
70009;BME280;59542;37.950;-122.338;2023-08-07T07:18:08;101227.81;;;17.30;77.80
70009;BME280;59542;37.950;-122.338;2023-08-07T07:20:34;101228.50;;;17.37;77.92
70009;BME280;59542;37.950;-122.338;2023-08-07T07:23:00;101230.16;;;17.38;77.64
70009;BME280;59542;37.950;-122.338;2023-08-07T07:25:26;101225.69;;;17.32;78.12
70009;BME280;59542;37.950;-122.338;2023-08-07T07:27:53;101225.97;;;17.19;78.48
70009;BME280;59542;37.950;-122.338;2023-08-07T07:30:19;101228.88;;;17.00;78.79
70009;BME280;59542;37.950;-122.338;2023-08-07T07:32:46;101231.09;;;16.92;79.54
70009;BME280;59542;37.950;-122.338;2023-08-07T07:35:12;101230.44;;;16.84;79.62
70009;BME280;59542;37.950;-122.338;2023-08-07T07:37:39;101227.81;;;17.01;78.74
70009;BME280;59542;37.950;-122.338;2023-08-07T07:40:06;101228.38;;;17.03;78.61
70009;BME280;59542;37.950;-122.338;2023-08-07T07:42:32;101223.34;;;16.95;79.29
70009;BME280;59542;37.950;-122.338;2023-08-07T07:44:58;101225.34;;;17.00;78.92
70009;BME280;59542;37.950;-122.338;2023-08-07T07:47:24;101218.41;;;16.92;79.16
70009;BME280;59542;37.950;-122.338;2023-08-07T07:50:07;101214.06;;;16.91;79.57
70009;BME280;59542;37.950;-122.338;2023-08-07T07:52:34;101229.00;;;16.82;79.87
70009;BME280;59542;37.950;-122.338;2023-08-07T07:55:00;101221.13;;;16.69;80.41
70009;BME280;59542;37.950;-122.338;2023-08-07T07:57:26;101227.25;;;16.76;80.42
70009;BME280;59542;37.950;-122.338;2023-08-07T07:59:53;101224.56;;;16.76;79.77
70009;BME280;59542;37.950;-122.338;2023-08-07T08:02:19;101230.56;;;16.78;80.08
70009;BME280;59542;37.950;-122.338;2023-08-07T08:04:45;101227.84;;;16.78;79.54
70009;BME280;59542;37.950;-122.338;2023-08-07T08:07:12;101225.38;;;16.76;79.66
70009;BME280;59542;37.950;-122.338;2023-08-07T08:09:38;101219.63;;;16.61;80.28
70009;BME280;59542;37.950;-122.338;2023-08-07T08:12:05;101216.69;;;16.62;80.21
70009;BME280;59542;37.950;-122.338;2023-08-07T08:14:31;101218.91;;;16.42;81.09
70009;BME280;59542;37.950;-122.338;2023-08-07T08:16:57;101218.69;;;16.55;80.71
70009;BME280;59542;37.950;-122.338;2023-08-07T08:19:23;101220.78;;;16.42;80.92
70009;BME280;59542;37.950;-122.338;2023-08-07T08:21:50;101209.16;;;16.41;81.29
70009;BME280;59542;37.950;-122.338;2023-08-07T08:24:16;101216.81;;;16.44;81.24
70009;BME280;59542;37.950;-122.338;2023-08-07T08:26:42;101213.19;;;16.27;82.00
70009;BME280;59542;37.950;-122.338;2023-08-07T08:29:09;101213.03;;;16.10;82.69
70009;BME280;59542;37.950;-122.338;2023-08-07T08:31:35;101207.41;;;16.12;82.64
70009;BME280;59542;37.950;-122.338;2023-08-07T08:34:01;101200.38;;;16.22;82.27
70009;BME280;59542;37.950;-122.338;2023-08-07T08:36:28;101207.75;;;16.03;83.16
70009;BME280;59542;37.950;-122.338;2023-08-07T08:38:54;101204.59;;;16.18;82.39
70009;BME280;59542;37.950;-122.338;2023-08-07T08:41:21;101198.94;;;16.08;83.09
70009;BME280;59542;37.950;-122.338;2023-08-07T08:43:49;101197.19;;;16.02;83.38
70009;BME280;59542;37.950;-122.338;2023-08-07T08:46:20;101201.53;;;16.15;82.94
70009;BME280;59542;37.950;-122.338;2023-08-07T08:48:56;101204.56;;;15.95;83.78
70009;BME280;59542;37.950;-122.338;2023-08-07T08:51:24;101201.06;;;16.06;83.65
70009;BME280;59542;37.950;-122.338;2023-08-07T08:53:54;101195.19;;;16.09;83.18
70009;BME280;59542;37.950;-122.338;2023-08-07T08:56:23;101196.00;;;15.98;84.00
70009;BME280;59542;37.950;-122.338;2023-08-07T08:58:50;101193.66;;;16.01;83.85
70009;BME280;59542;37.950;-122.338;2023-08-07T09:01:18;101198.38;;;16.18;83.13
70009;BME280;59542;37.950;-122.338;2023-08-07T09:03:45;101197.06;;;16.08;83.89
70009;BME280;59542;37.950;-122.338;2023-08-07T09:06:12;101194.84;;;16.05;83.67
70009;BME280;59542;37.950;-122.338;2023-08-07T09:08:42;101197.53;;;16.05;83.95
70009;BME280;59542;37.950;-122.338;2023-08-07T09:11:10;101198.25;;;16.13;83.57
70009;BME280;59542;37.950;-122.338;2023-08-07T09:13:41;101197.75;;;16.04;83.76
70009;BME280;59542;37.950;-122.338;2023-08-07T09:16:09;101192.47;;;15.97;84.18
70009;BME280;59542;37.950;-122.338;2023-08-07T09:18:37;101186.13;;;16.03;84.09
70009;BME280;59542;37.950;-122.338;2023-08-07T09:21:03;101174.38;;;15.86;84.88
70009;BME280;59542;37.950;-122.338;2023-08-07T09:23:30;101176.13;;;15.80;85.33
70009;BME280;59542;37.950;-122.338;2023-08-07T09:26:03;101179.19;;;15.72;85.79
70009;BME280;59542;37.950;-122.338;2023-08-07T09:28:32;101169.97;;;15.62;86.63
70009;BME280;59542;37.950;-122.338;2023-08-07T09:30:59;101181.34;;;15.94;84.58
70009;BME280;59542;37.950;-122.338;2023-08-07T09:33:28;101182.16;;;15.94;84.38
70009;BME280;59542;37.950;-122.338;2023-08-07T09:35:59;101175.25;;;15.56;86.96
70009;BME280;59542;37.950;-122.338;2023-08-07T09:38:29;101177.66;;;15.76;85.67
70009;BME280;59542;37.950;-122.338;2023-08-07T09:41:02;101165.00;;;15.77;85.47
70009;BME280;59542;37.950;-122.338;2023-08-07T09:43:29;101172.84;;;15.48;87.01
70009;BME280;59542;37.950;-122.338;2023-08-07T09:46:05;101171.84;;;15.61;86.55
70009;BME280;59542;37.950;-122.338;2023-08-07T09:48:32;101168.09;;;15.62;86.18
70009;BME280;59542;37.950;-122.338;2023-08-07T09:51:04;101170.78;;;15.50;86.90
70009;BME280;59542;37.950;-122.338;2023-08-07T09:53:31;101168.50;;;15.66;86.38
70009;BME280;59542;37.950;-122.338;2023-08-07T09:55:58;101162.88;;;15.67;86.14
70009;BME280;59542;37.950;-122.338;2023-08-07T09:58:24;101160.88;;;15.86;85.42
70009;BME280;59542;37.950;-122.338;2023-08-07T10:00:52;101165.22;;;15.87;84.96
70009;BME280;59542;37.950;-122.338;2023-08-07T10:03:25;101168.84;;;15.69;85.75
70009;BME280;59542;37.950;-122.338;2023-08-07T10:05:52;101157.34;;;15.74;86.07
70009;BME280;59542;37.950;-122.338;2023-08-07T10:08:18;101156.66;;;15.78;85.73
70009;BME280;59542;37.950;-122.338;2023-08-07T10:10:46;101158.31;;;15.91;85.08
70009;BME280;59542;37.950;-122.338;2023-08-07T10:13:13;101168.19;;;15.97;84.88
70009;BME280;59542;37.950;-122.338;2023-08-07T10:15:40;101166.41;;;15.79;85.24
70009;BME280;59542;37.950;-122.338;2023-08-07T10:18:08;101171.53;;;15.69;85.69
70009;BME280;59542;37.950;-122.338;2023-08-07T10:20:36;101172.84;;;15.78;85.93
70009;BME280;59542;37.950;-122.338;2023-08-07T10:23:10;101179.19;;;15.72;86.28
70009;BME280;59542;37.950;-122.338;2023-08-07T10:25:41;101180.00;;;15.73;86.75
70009;BME280;59542;37.950;-122.338;2023-08-07T10:28:13;101176.84;;;15.88;86.13
70009;BME280;59542;37.950;-122.338;2023-08-07T10:30:42;101190.09;;;15.47;88.57
70009;BME280;59542;37.950;-122.338;2023-08-07T10:33:10;101185.75;;;15.46;89.09
70009;BME280;59542;37.950;-122.338;2023-08-07T10:35:45;101177.81;;;15.51;89.05
70009;BME280;59542;37.950;-122.338;2023-08-07T10:38:15;101173.13;;;15.58;87.63
70009;BME280;59542;37.950;-122.338;2023-08-07T10:41:13;101183.47;;;15.62;87.71
70009;BME280;59542;37.950;-122.338;2023-08-07T10:43:43;101180.00;;;15.73;87.42
70009;BME280;59542;37.950;-122.338;2023-08-07T10:46:13;101181.19;;;15.77;86.51
70009;BME280;59542;37.950;-122.338;2023-08-07T10:48:43;101171.56;;;15.93;85.52
70009;BME280;59542;37.950;-122.338;2023-08-07T10:51:13;101167.56;;;15.72;86.52
70009;BME280;59542;37.950;-122.338;2023-08-07T10:53:42;101144.69;;;15.74;86.58
70009;BME280;59542;37.950;-122.338;2023-08-07T10:56:29;101145.03;;;15.66;87.55
70009;BME280;59542;37.950;-122.338;2023-08-07T10:58:56;101149.31;;;15.55;88.28
70009;BME280;59542;37.950;-122.338;2023-08-07T11:03:56;101146.81;;;15.42;89.00
70009;BME280;59542;37.950;-122.338;2023-08-07T11:06:25;101147.28;;;15.39;89.30
70009;BME280;59542;37.950;-122.338;2023-08-07T11:08:54;101148.56;;;15.48;88.90
70009;BME280;59542;37.950;-122.338;2023-08-07T11:11:20;101151.28;;;15.48;88.40
70009;BME280;59542;37.950;-122.338;2023-08-07T11:13:47;101145.69;;;15.62;87.70
70009;BME280;59542;37.950;-122.338;2023-08-07T11:16:13;101148.84;;;15.58;87.81
70009;BME280;59542;37.950;-122.338;2023-08-07T11:18:40;101150.97;;;15.56;88.26
70009;BME280;59542;37.950;-122.338;2023-08-07T11:21:11;101154.84;;;15.61;87.66
70009;BME280;59542;37.950;-122.338;2023-08-07T11:23:41;101155.84;;;15.48;88.84
70009;BME280;59542;37.950;-122.338;2023-08-07T11:26:08;101163.00;;;15.42;88.82
70009;BME280;59542;37.950;-122.338;2023-08-07T11:28:35;101166.38;;;15.68;87.88
70009;BME280;59542;37.950;-122.338;2023-08-07T11:31:01;101157.56;;;15.61;88.37
70009;BME280;59542;37.950;-122.338;2023-08-07T11:33:28;101153.53;;;15.51;88.92
70009;BME280;59542;37.950;-122.338;2023-08-07T11:35:55;101154.00;;;15.60;88.45
70009;BME280;59542;37.950;-122.338;2023-08-07T11:38:32;101163.34;;;15.76;87.59
70009;BME280;59542;37.950;-122.338;2023-08-07T11:41:03;101160.50;;;15.71;87.54
70009;BME280;59542;37.950;-122.338;2023-08-07T11:43:30;101157.22;;;15.69;87.52
70009;BME280;59542;37.950;-122.338;2023-08-07T11:46:23;101159.22;;;15.73;87.63
70009;BME280;59542;37.950;-122.338;2023-08-07T11:48:49;101157.47;;;15.67;88.06
70009;BME280;59542;37.950;-122.338;2023-08-07T11:51:20;101155.28;;;15.57;87.99
70009;BME280;59542;37.950;-122.338;2023-08-07T11:53:46;101159.94;;;15.39;89.19
70009;BME280;59542;37.950;-122.338;2023-08-07T11:56:13;101146.38;;;15.45;88.93
70009;BME280;59542;37.950;-122.338;2023-08-07T11:58:48;101146.50;;;15.62;88.50
70009;BME280;59542;37.950;-122.338;2023-08-07T12:01:18;101151.84;;;15.69;87.76
70009;BME280;59542;37.950;-122.338;2023-08-07T12:06:25;101141.16;;;15.74;87.35
70009;BME280;59542;37.950;-122.338;2023-08-07T12:08:54;101139.69;;;15.59;88.22
70009;BME280;59542;37.950;-122.338;2023-08-07T12:11:22;101144.50;;;15.57;88.33
70009;BME280;59542;37.950;-122.338;2023-08-07T12:13:49;101140.63;;;15.53;88.39
70009;BME280;59542;37.950;-122.338;2023-08-07T12:16:16;101141.44;;;15.54;88.20
70009;BME280;59542;37.950;-122.338;2023-08-07T12:18:52;101147.91;;;15.53;88.12
70009;BME280;59542;37.950;-122.338;2023-08-07T12:21:21;101141.78;;;15.46;88.52
70009;BME280;59542;37.950;-122.338;2023-08-07T12:23:50;101140.25;;;15.38;89.18
70009;BME280;59542;37.950;-122.338;2023-08-07T12:26:18;101145.31;;;15.58;88.39
70009;BME280;59542;37.950;-122.338;2023-08-07T12:28:44;101147.06;;;15.52;88.28
70009;BME280;59542;37.950;-122.338;2023-08-07T12:31:10;101148.84;;;15.58;88.12
70009;BME280;59542;37.950;-122.338;2023-08-07T12:33:37;101149.91;;;15.57;88.16
70009;BME280;59542;37.950;-122.338;2023-08-07T12:36:03;101152.19;;;15.72;87.52
70009;BME280;59542;37.950;-122.338;2023-08-07T12:38:30;101150.88;;;15.63;87.96